DONNELLS (DON)

Elevation: 4835' · STANISLAUS R basin · Operator: US Bureau of Reclamation


Station comments:

05/29/2015The reservoir capacity was updated May 2015 with information from the USBR


Provisional data, subject to change.
Query executed Friday at 11:35:57   clock

Select a sensor type for a plot of data.
Note: Reservoir Flows are daily averages.

Earlier

Date STORAGE    RES CHG    OUTFLOW   
 AF   AF   CFS  
08/05/2015 48695 -359 258
08/06/2015 48382 -313 220
08/07/2015 48078 -304 220
08/08/2015 47786 -292 212
08/09/2015 47513 -273 199
08/10/2015 47203 -310 216
08/11/2015 46922 -281 204
08/12/2015 46564 -358 220
08/13/2015 46274 -- 201
08/14/2015 45884 -390 258
08/15/2015 45456 -428 267
08/16/2015 45038 -418 265
08/17/2015 44617 -421 267
08/18/2015 44186 -431 268
08/19/2015 43902 -284 184
08/20/2015 43635 -267 183
08/21/2015 43373 -262 187
08/22/2015 43091 -282 195
08/23/2015 42826 -265 189
08/24/2015 42529 -297 204
08/25/2015 42207 -322 210
08/26/2015 41879 -328 216
08/27/2015 41486 -393 257
08/28/2015 41120 -366 226
08/29/2015 40805 -315 204
08/30/2015 40505 -300 203
08/31/2015 40170 -335 229
09/01/2015 39889 -281 174
09/02/2015 39634 -255 183
09/03/2015 39390 -244 170
09/04/2015 -- -- --

Later | Latest

Warning! This data is preliminary and subject to revision.

Show DON Map | Plot DON Data | 1 Month DON Data | Real-Time DON Data | DON Info